sensor_id;sensor_type;location;lat;lon;timestamp;pressure;altitude;pressure_sealevel;temperature;humidity
44140;BME280;29803;51.048;4.686;2023-04-05T00:00:51;102428.81;;;0.34;100.00
44140;BME280;29803;51.048;4.686;2023-04-05T00:03:23;102417.59;;;0.29;100.00
44140;BME280;29803;51.048;4.686;2023-04-05T00:05:54;102422.28;;;0.22;100.00
44140;BME280;29803;51.048;4.686;2023-04-05T00:08:25;102419.88;;;0.16;100.00
44140;BME280;29803;51.048;4.686;2023-04-05T00:10:57;102437.53;;;0.14;100.00
44140;BME280;29803;51.048;4.686;2023-04-05T00:13:28;102421.94;;;0.08;100.00
44140;BME280;29803;51.048;4.686;2023-04-05T00:15:59;102421.38;;;-0.01;100.00
44140;BME280;29803;51.048;4.686;2023-04-05T00:18:30;102425.97;;;-0.06;100.00
44140;BME280;29803;51.048;4.686;2023-04-05T00:21:03;102431.31;;;-0.07;100.00
44140;BME280;29803;51.048;4.686;2023-04-05T00:23:33;102431.41;;;-0.09;100.00
44140;BME280;29803;51.048;4.686;2023-04-05T00:26:08;102425.25;;;-0.09;100.00
44140;BME280;29803;51.048;4.686;2023-04-05T00:28:39;102425.97;;;-0.06;100.00
44140;BME280;29803;51.048;4.686;2023-04-05T00:31:10;102431.25;;;-0.06;100.00
44140;BME280;29803;51.048;4.686;2023-04-05T00:33:41;102431.44;;;-0.10;100.00
44140;BME280;29803;51.048;4.686;2023-04-05T00:36:14;102437.81;;;-0.16;100.00
44140;BME280;29803;51.048;4.686;2023-04-05T00:38:46;102426.63;;;-0.22;100.00
44140;BME280;29803;51.048;4.686;2023-04-05T00:41:17;102424.25;;;-0.29;100.00
44140;BME280;29803;51.048;4.686;2023-04-05T00:43:47;102425.38;;;-0.36;100.00
44140;BME280;29803;51.048;4.686;2023-04-05T00:46:18;102428.25;;;-0.42;100.00
44140;BME280;29803;51.048;4.686;2023-04-05T00:48:49;102427.69;;;-0.50;100.00
44140;BME280;29803;51.048;4.686;2023-04-05T00:51:20;102426.16;;;-0.57;100.00
44140;BME280;29803;51.048;4.686;2023-04-05T00:53:51;102421.03;;;-0.60;100.00
44140;BME280;29803;51.048;4.686;2023-04-05T00:56:22;102418.50;;;-0.63;100.00
44140;BME280;29803;51.048;4.686;2023-04-05T00:58:53;102417.88;;;-0.70;100.00
44140;BME280;29803;51.048;4.686;2023-04-05T01:01:24;102427.53;;;-0.70;100.00
44140;BME280;29803;51.048;4.686;2023-04-05T01:03:59;102422.38;;;-0.73;100.00
44140;BME280;29803;51.048;4.686;2023-04-05T01:12:17;102411.16;;;-0.79;100.00
44140;BME280;29803;51.048;4.686;2023-04-05T01:14:50;102418.97;;;-0.77;100.00
44140;BME280;29803;51.048;4.686;2023-04-05T01:17:25;102409.19;;;-0.73;100.00
44140;BME280;29803;51.048;4.686;2023-04-05T01:19:59;102417.97;;;-0.73;100.00
44140;BME280;29803;51.048;4.686;2023-04-05T01:33:50;102397.84;;;-0.75;100.00
44140;BME280;29803;51.048;4.686;2023-04-05T01:36:30;102397.38;;;-0.87;100.00
44140;BME280;29803;51.048;4.686;2023-04-05T01:39:04;102394.31;;;-0.99;100.00
44140;BME280;29803;51.048;4.686;2023-04-05T01:41:35;102400.88;;;-1.11;100.00
44140;BME280;29803;51.048;4.686;2023-04-05T01:44:06;102391.56;;;-1.21;100.00
44140;BME280;29803;51.048;4.686;2023-04-05T01:46:37;102394.41;;;-1.27;100.00
44140;BME280;29803;51.048;4.686;2023-04-05T01:49:07;102396.41;;;-1.34;100.00
44140;BME280;29803;51.048;4.686;2023-04-05T01:51:38;102384.19;;;-1.37;100.00
44140;BME280;29803;51.048;4.686;2023-04-05T01:54:11;102392.16;;;-1.38;100.00
44140;BME280;29803;51.048;4.686;2023-04-05T01:56:47;102380.69;;;-1.37;100.00
44140;BME280;29803;51.048;4.686;2023-04-05T01:59:17;102383.28;;;-1.36;100.00
44140;BME280;29803;51.048;4.686;2023-04-05T02:01:58;102384.19;;;-1.37;100.00
44140;BME280;29803;51.048;4.686;2023-04-05T02:04:32;102379.06;;;-1.40;100.00
44140;BME280;29803;51.048;4.686;2023-04-05T02:07:03;102375.59;;;-1.42;100.00
44140;BME280;29803;51.048;4.686;2023-04-05T02:09:34;102370.59;;;-1.49;100.00
44140;BME280;29803;51.048;4.686;2023-04-05T02:12:04;102371.59;;;-1.53;100.00
44140;BME280;29803;51.048;4.686;2023-04-05T02:14:35;102372.69;;;-1.59;100.00
44140;BME280;29803;51.048;4.686;2023-04-05T02:17:08;102366.66;;;-1.63;100.00
44140;BME280;29803;51.048;4.686;2023-04-05T02:19:39;102370.25;;;-1.65;100.00
44140;BME280;29803;51.048;4.686;2023-04-05T02:22:20;102365.13;;;-1.70;100.00
44140;BME280;29803;51.048;4.686;2023-04-05T02:24:51;102363.50;;;-1.74;100.00
44140;BME280;29803;51.048;4.686;2023-04-05T02:27:22;102364.47;;;-1.76;100.00
44140;BME280;29803;51.048;4.686;2023-04-05T02:29:56;102366.22;;;-1.77;100.00
44140;BME280;29803;51.048;4.686;2023-04-05T02:32:27;102366.22;;;-1.77;100.00
44140;BME280;29803;51.048;4.686;2023-04-05T02:34:57;102363.66;;;-1.78;100.00
44140;BME280;29803;51.048;4.686;2023-04-05T02:37:28;102362.81;;;-1.79;100.00
44140;BME280;29803;51.048;4.686;2023-04-05T02:39:59;102363.72;;;-1.80;100.00
44140;BME280;29803;51.048;4.686;2023-04-05T02:42:29;102360.22;;;-1.80;100.00
44140;BME280;29803;51.048;4.686;2023-04-05T02:45:00;102357.59;;;-1.80;100.00
44140;BME280;29803;51.048;4.686;2023-04-05T02:47:31;102357.59;;;-1.80;100.00
44140;BME280;29803;51.048;4.686;2023-04-05T02:50:01;102357.59;;;-1.80;100.00
44140;BME280;29803;51.048;4.686;2023-04-05T02:52:32;102354.09;;;-1.81;100.00
44140;BME280;29803;51.048;4.686;2023-04-05T02:55:05;102352.44;;;-1.84;100.00
44140;BME280;29803;51.048;4.686;2023-04-05T02:57:36;102349.88;;;-1.87;100.00
44140;BME280;29803;51.048;4.686;2023-04-05T03:00:06;102342.06;;;-1.88;100.00
44140;BME280;29803;51.048;4.686;2023-04-05T03:02:37;102343.88;;;-1.90;100.00
44140;BME280;29803;51.048;4.686;2023-04-05T03:05:09;102334.22;;;-1.90;100.00
44140;BME280;29803;51.048;4.686;2023-04-05T03:07:39;102333.31;;;-1.89;100.00
44140;BME280;29803;51.048;4.686;2023-04-05T03:10:13;102333.31;;;-1.89;100.00
44140;BME280;29803;51.048;4.686;2023-04-05T03:12:44;102333.38;;;-1.92;100.00
44140;BME280;29803;51.048;4.686;2023-04-05T03:15:15;102330.81;;;-1.93;100.00
44140;BME280;29803;51.048;4.686;2023-04-05T03:17:45;102328.97;;;-1.91;100.00
44140;BME280;29803;51.048;4.686;2023-04-05T03:20:16;102324.69;;;-1.94;100.00
44140;BME280;29803;51.048;4.686;2023-04-05T03:22:46;102316.88;;;-1.95;100.00
44140;BME280;29803;51.048;4.686;2023-04-05T03:25:17;102323.06;;;-1.98;100.00
44140;BME280;29803;51.048;4.686;2023-04-05T03:27:48;102323.16;;;-2.01;100.00
44140;BME280;29803;51.048;4.686;2023-04-05T03:30:19;102318.88;;;-2.03;100.00
44140;BME280;29803;51.048;4.686;2023-04-05T03:32:49;102325.06;;;-2.06;100.00
44140;BME280;29803;51.048;4.686;2023-04-05T03:35:20;102318.22;;;-2.10;100.00
44140;BME280;29803;51.048;4.686;2023-04-05T03:37:50;102321.00;;;-2.15;100.00
44140;BME280;29803;51.048;4.686;2023-04-05T03:40:22;102327.25;;;-2.19;100.00
44140;BME280;29803;51.048;4.686;2023-04-05T03:42:53;102323.81;;;-2.21;100.00
44140;BME280;29803;51.048;4.686;2023-04-05T03:45:23;102326.47;;;-2.21;100.00
44140;BME280;29803;51.048;4.686;2023-04-05T03:47:55;102326.41;;;-2.19;100.00
44140;BME280;29803;51.048;4.686;2023-04-05T03:50:25;102325.47;;;-2.18;100.00
44140;BME280;29803;51.048;4.686;2023-04-05T03:52:56;102329.03;;;-2.19;100.00
44140;BME280;29803;51.048;4.686;2023-04-05T03:55:26;102322.06;;;-2.20;100.00
44140;BME280;29803;51.048;4.686;2023-04-05T03:57:57;102320.44;;;-2.24;100.00
44140;BME280;29803;51.048;4.686;2023-04-05T04:00:27;102323.06;;;-2.24;100.00
44140;BME280;29803;51.048;4.686;2023-04-05T04:02:58;102303.88;;;-2.28;100.00
44140;BME280;29803;51.048;4.686;2023-04-05T04:05:29;102315.31;;;-2.29;100.00
44140;BME280;29803;51.048;4.686;2023-04-05T04:08:00;102315.38;;;-2.32;100.00
44140;BME280;29803;51.048;4.686;2023-04-05T04:10:31;102308.50;;;-2.36;100.00
44140;BME280;29803;51.048;4.686;2023-04-05T04:13:01;102315.59;;;-2.38;100.00
44140;BME280;29803;51.048;4.686;2023-04-05T04:15:32;102313.94;;;-2.41;100.00
44140;BME280;29803;51.048;4.686;2023-04-05T04:18:02;102311.31;;;-2.42;100.00
44140;BME280;29803;51.048;4.686;2023-04-05T04:20:33;102308.75;;;-2.44;100.00
44140;BME280;29803;51.048;4.686;2023-04-05T04:23:04;102309.63;;;-2.43;100.00
44140;BME280;29803;51.048;4.686;2023-04-05T04:25:36;102308.69;;;-2.41;100.00
44140;BME280;29803;51.048;4.686;2023-04-05T04:28:06;102306.66;;;-2.32;100.00
44140;BME280;29803;51.048;4.686;2023-04-05T04:30:38;102305.72;;;-2.30;100.00
44140;BME280;29803;51.048;4.686;2023-04-05T04:33:12;102308.34;;;-2.31;100.00
44140;BME280;29803;51.048;4.686;2023-04-05T04:35:43;102307.63;;;-2.35;100.00
44140;BME280;29803;51.048;4.686;2023-04-05T04:38:15;102304.16;;;-2.37;100.00
44140;BME280;29803;51.048;4.686;2023-04-05T04:40:48;102306.03;;;-2.41;100.00
44140;BME280;29803;51.048;4.686;2023-04-05T04:43:20;102308.81;;;-2.45;100.00
44140;BME280;29803;51.048;4.686;2023-04-05T04:45:57;102307.25;;;-2.51;100.00
44140;BME280;29803;51.048;4.686;2023-04-05T04:48:28;102317.75;;;-2.51;100.00
44140;BME280;29803;51.048;4.686;2023-04-05T04:51:01;102308.13;;;-2.52;100.00
44140;BME280;29803;51.048;4.686;2023-04-05T04:53:31;102310.00;;;-2.55;100.00
44140;BME280;29803;51.048;4.686;2023-04-05T04:56:15;102312.75;;;-2.60;100.00
44140;BME280;29803;51.048;4.686;2023-04-05T04:58:45;102304.16;;;-2.65;100.00
44140;BME280;29803;51.048;4.686;2023-04-05T05:01:16;102305.94;;;-2.67;100.00
44140;BME280;29803;51.048;4.686;2023-04-05T05:03:46;102306.00;;;-2.69;100.00
44140;BME280;29803;51.048;4.686;2023-04-05T05:06:17;102302.53;;;-2.69;100.00
44140;BME280;29803;51.048;4.686;2023-04-05T05:08:48;102303.44;;;-2.70;100.00
44140;BME280;29803;51.048;4.686;2023-04-05T05:11:19;102304.31;;;-2.71;100.00
44140;BME280;29803;51.048;4.686;2023-04-05T05:13:50;102303.53;;;-2.73;100.00
44140;BME280;29803;51.048;4.686;2023-04-05T05:16:21;102305.22;;;-2.72;100.00
44140;BME280;29803;51.048;4.686;2023-04-05T05:18:53;102303.47;;;-2.72;100.00
44140;BME280;29803;51.048;4.686;2023-04-05T05:21:23;102303.38;;;-2.69;100.00
44140;BME280;29803;51.048;4.686;2023-04-05T05:23:55;102304.09;;;-2.64;100.00
44140;BME280;29803;51.048;4.686;2023-04-05T05:26:26;102313.56;;;-2.58;100.00
44140;BME280;29803;51.048;4.686;2023-04-05T05:28:59;102307.25;;;-2.51;100.00
44140;BME280;29803;51.048;4.686;2023-04-05T05:31:31;102309.75;;;-2.48;100.00
44140;BME280;29803;51.048;4.686;2023-04-05T05:34:02;102314.06;;;-2.45;100.00
44140;BME280;29803;51.048;4.686;2023-04-05T05:36:33;102307.84;;;-2.43;100.00
44140;BME280;29803;51.048;4.686;2023-04-05T05:39:04;102313.00;;;-2.40;100.00
44140;BME280;29803;51.048;4.686;2023-04-05T05:41:35;102322.53;;;-2.36;100.00
44140;BME280;29803;51.048;4.686;2023-04-05T05:44:06;102326.81;;;-2.33;100.00
44140;BME280;29803;51.048;4.686;2023-04-05T05:46:36;102318.78;;;-2.28;100.00
44140;BME280;29803;51.048;4.686;2023-04-05T05:49:07;102315.97;;;-2.22;100.00
44140;BME280;29803;51.048;4.686;2023-04-05T05:51:37;102324.47;;;-2.14;100.00
44140;BME280;29803;51.048;4.686;2023-04-05T05:54:07;102318.09;;;-2.07;100.00
44140;BME280;29803;51.048;4.686;2023-04-05T05:56:38;102318.78;;;-2.00;100.00
44140;BME280;29803;51.048;4.686;2023-04-05T05:59:09;102321.91;;;-1.89;100.00
44140;BME280;29803;51.048;4.686;2023-04-05T06:01:39;102333.75;;;-1.76;100.00
44140;BME280;29803;51.048;4.686;2023-04-05T06:04:12;102330.56;;;-1.59;100.00
44140;BME280;29803;51.048;4.686;2023-04-05T06:06:43;102327.34;;;-1.17;100.00
44140;BME280;29803;51.048;4.686;2023-04-05T06:09:16;102331.94;;;-0.52;100.00
44140;BME280;29803;51.048;4.686;2023-04-05T06:11:50;102324.47;;;0.25;100.00
44140;BME280;29803;51.048;4.686;2023-04-05T06:14:21;102335.28;;;0.82;100.00
44140;BME280;29803;51.048;4.686;2023-04-05T06:16:52;102331.00;;;1.37;100.00
44140;BME280;29803;51.048;4.686;2023-04-05T06:19:22;102334.47;;;1.94;100.00
44140;BME280;29803;51.048;4.686;2023-04-05T06:21:53;102332.44;;;2.53;100.00
44140;BME280;29803;51.048;4.686;2023-04-05T06:24:24;102333.56;;;2.99;100.00
44140;BME280;29803;51.048;4.686;2023-04-05T06:26:55;102337.06;;;3.49;100.00
44140;BME280;29803;51.048;4.686;2023-04-05T06:29:26;102328.25;;;3.80;100.00
44140;BME280;29803;51.048;4.686;2023-04-05T06:31:56;102330.97;;;4.10;100.00
44140;BME280;29803;51.048;4.686;2023-04-05T06:34:27;102324.50;;;4.30;100.00
44140;BME280;29803;51.048;4.686;2023-04-05T06:36:57;102328.69;;;4.64;100.00
44140;BME280;29803;51.048;4.686;2023-04-05T06:39:28;102326.72;;;4.82;100.00
44140;BME280;29803;51.048;4.686;2023-04-05T06:41:58;102324.25;;;5.22;100.00
44140;BME280;29803;51.048;4.686;2023-04-05T06:44:29;102322.59;;;5.62;100.00
44140;BME280;29803;51.048;4.686;2023-04-05T06:46:59;102327.31;;;6.00;100.00
44140;BME280;29803;51.048;4.686;2023-04-05T06:49:30;102328.28;;;6.11;100.00
44140;BME280;29803;51.048;4.686;2023-04-05T06:52:01;102324.13;;;6.34;100.00
44140;BME280;29803;51.048;4.686;2023-04-05T06:54:33;102323.19;;;6.61;100.00
44140;BME280;29803;51.048;4.686;2023-04-05T06:57:03;102333.56;;;6.65;100.00
44140;BME280;29803;51.048;4.686;2023-04-05T06:59:34;102331.19;;;6.61;100.00
44140;BME280;29803;51.048;4.686;2023-04-05T07:02:05;102326.13;;;6.31;100.00
44140;BME280;29803;51.048;4.686;2023-04-05T07:04:35;102321.63;;;6.71;100.00
44140;BME280;29803;51.048;4.686;2023-04-05T07:07:06;102318.41;;;6.66;100.00
44140;BME280;29803;51.048;4.686;2023-04-05T07:09:38;102319.38;;;6.78;100.00
44140;BME280;29803;51.048;4.686;2023-04-05T07:12:08;102326.19;;;7.07;100.00
44140;BME280;29803;51.048;4.686;2023-04-05T07:14:39;102316.19;;;7.60;100.00
44140;BME280;29803;51.048;4.686;2023-04-05T07:17:09;102315.16;;;7.50;100.00
44140;BME280;29803;51.048;4.686;2023-04-05T07:19:40;102323.69;;;7.55;100.00
44140;BME280;29803;51.048;4.686;2023-04-05T07:22:10;102325.16;;;7.96;100.00
44140;BME280;29803;51.048;4.686;2023-04-05T07:24:41;102324.69;;;7.78;100.00
44140;BME280;29803;51.048;4.686;2023-04-05T07:27:11;102319.97;;;7.82;100.00
44140;BME280;29803;51.048;4.686;2023-04-05T07:29:42;102323.13;;;7.99;100.00
44140;BME280;29803;51.048;4.686;2023-04-05T07:32:13;102317.25;;;8.42;100.00
44140;BME280;29803;51.048;4.686;2023-04-05T07:34:44;102307.53;;;8.41;100.00
44140;BME280;29803;51.048;4.686;2023-04-05T07:37:15;102315.34;;;8.55;100.00
44140;BME280;29803;51.048;4.686;2023-04-05T07:39:45;102310.88;;;8.78;100.00
44140;BME280;29803;51.048;4.686;2023-04-05T07:42:15;102310.19;;;8.88;100.00
44140;BME280;29803;51.048;4.686;2023-04-05T07:44:48;102308.38;;;8.99;100.00
44140;BME280;29803;51.048;4.686;2023-04-05T07:47:18;102313.25;;;9.28;100.00
44140;BME280;29803;51.048;4.686;2023-04-05T07:49:49;102310.69;;;9.38;100.00
44140;BME280;29803;51.048;4.686;2023-04-05T07:52:19;102296.66;;;9.56;100.00
44140;BME280;29803;51.048;4.686;2023-04-05T07:54:50;102311.75;;;9.80;100.00
44140;BME280;29803;51.048;4.686;2023-04-05T07:57:21;102306.88;;;9.63;100.00
44140;BME280;29803;51.048;4.686;2023-04-05T07:59:52;102309.41;;;10.19;100.00
44140;BME280;29803;51.048;4.686;2023-04-05T08:02:24;102313.25;;;10.05;100.00
44140;BME280;29803;51.048;4.686;2023-04-05T08:04:54;102309.41;;;10.19;100.00
44140;BME280;29803;51.048;4.686;2023-04-05T08:07:25;102309.47;;;10.40;100.00
44140;BME280;29803;51.048;4.686;2023-04-05T08:09:55;102304.31;;;10.48;100.00
44140;BME280;29803;51.048;4.686;2023-04-05T08:12:29;102300.31;;;10.63;100.00
44140;BME280;29803;51.048;4.686;2023-04-05T08:15:00;102307.78;;;10.80;100.00
44140;BME280;29803;51.048;4.686;2023-04-05T08:17:31;102308.19;;;11.06;100.00
44140;BME280;29803;51.048;4.686;2023-04-05T08:20:01;102300.00;;;11.48;100.00
44140;BME280;29803;51.048;4.686;2023-04-05T08:22:33;102303.03;;;11.64;100.00
44140;BME280;29803;51.048;4.686;2023-04-05T08:25:03;102303.69;;;12.07;100.00
44140;BME280;29803;51.048;4.686;2023-04-05T08:27:34;102292.78;;;12.37;100.00
44140;BME280;29803;51.048;4.686;2023-04-05T08:30:07;102301.28;;;12.52;100.00
44140;BME280;29803;51.048;4.686;2023-04-05T08:32:38;102304.97;;;12.51;100.00
44140;BME280;29803;51.048;4.686;2023-04-05T08:35:08;102299.56;;;12.70;100.00
44140;BME280;29803;51.048;4.686;2023-04-05T08:37:39;102296.59;;;13.11;100.00
44140;BME280;29803;51.048;4.686;2023-04-05T08:40:10;102297.16;;;13.05;97.81
44140;BME280;29803;51.048;4.686;2023-04-05T08:42:45;102301.69;;;12.67;88.41
44140;BME280;29803;51.048;4.686;2023-04-05T08:45:21;102290.25;;;12.46;90.06
44140;BME280;29803;51.048;4.686;2023-04-05T08:47:54;102292.28;;;12.90;92.34
44140;BME280;29803;51.048;4.686;2023-04-05T08:50:25;102296.47;;;12.65;79.51
44140;BME280;29803;51.048;4.686;2023-04-05T08:52:56;102292.38;;;12.99;75.05
44140;BME280;29803;51.048;4.686;2023-04-05T08:55:27;102287.72;;;14.37;58.75
44140;BME280;29803;51.048;4.686;2023-04-05T08:57:58;102297.59;;;14.90;51.39
44140;BME280;29803;51.048;4.686;2023-04-05T09:00:31;102288.28;;;13.87;65.99
44140;BME280;29803;51.048;4.686;2023-04-05T09:03:02;102288.13;;;13.70;70.90
44140;BME280;29803;51.048;4.686;2023-04-05T09:05:35;102286.50;;;13.95;70.72
44140;BME280;29803;51.048;4.686;2023-04-05T09:08:08;102291.44;;;14.00;59.12
44140;BME280;29803;51.048;4.686;2023-04-05T09:10:39;102287.88;;;13.99;61.78
44140;BME280;29803;51.048;4.686;2023-04-05T09:13:10;102284.75;;;13.86;58.88
44140;BME280;29803;51.048;4.686;2023-04-05T09:15:41;102279.25;;;13.78;58.82
44140;BME280;29803;51.048;4.686;2023-04-05T09:18:11;102281.47;;;14.00;61.04
44140;BME280;29803;51.048;4.686;2023-04-05T09:20:42;102283.56;;;13.89;60.19
44140;BME280;29803;51.048;4.686;2023-04-05T09:23:12;102283.50;;;14.16;61.94
44140;BME280;29803;51.048;4.686;2023-04-05T09:25:43;102273.94;;;13.86;54.84
44140;BME280;29803;51.048;4.686;2023-04-05T09:28:15;102275.25;;;14.18;56.61
44140;BME280;29803;51.048;4.686;2023-04-05T09:30:46;102273.66;;;14.69;54.55
44140;BME280;29803;51.048;4.686;2023-04-05T09:33:18;102267.50;;;14.59;53.14
44140;BME280;29803;51.048;4.686;2023-04-05T09:35:50;102277.16;;;14.61;55.04
44140;BME280;29803;51.048;4.686;2023-04-05T09:38:41;102271.47;;;14.29;60.66
44140;BME280;29803;51.048;4.686;2023-04-05T09:41:11;102272.78;;;13.89;56.06
44140;BME280;29803;51.048;4.686;2023-04-05T09:43:42;102260.56;;;14.20;54.34
44140;BME280;29803;51.048;4.686;2023-04-05T09:46:32;102266.44;;;14.52;53.03
44140;BME280;29803;51.048;4.686;2023-04-05T09:49:03;102258.53;;;14.76;56.72
44140;BME280;29803;51.048;4.686;2023-04-05T09:51:37;102266.09;;;14.72;57.16
44140;BME280;29803;51.048;4.686;2023-04-05T09:54:09;102262.50;;;14.28;54.42
44140;BME280;29803;51.048;4.686;2023-04-05T09:56:53;102260.78;;;14.89;61.31
44140;BME280;29803;51.048;4.686;2023-04-05T09:59:24;102254.59;;;14.96;60.78
44140;BME280;29803;51.048;4.686;2023-04-05T10:01:54;102254.84;;;15.19;56.93
44140;BME280;29803;51.048;4.686;2023-04-05T10:04:25;102253.63;;;14.54;55.36
44140;BME280;29803;51.048;4.686;2023-04-05T10:06:56;102244.53;;;13.47;60.50
44140;BME280;29803;51.048;4.686;2023-04-05T10:09:26;102245.53;;;13.46;58.92
44140;BME280;29803;51.048;4.686;2023-04-05T10:11:57;102240.25;;;13.90;57.92
44140;BME280;29803;51.048;4.686;2023-04-05T10:14:30;102241.72;;;13.85;50.99
44140;BME280;29803;51.048;4.686;2023-04-05T10:20:17;102238.91;;;13.04;66.37
44140;BME280;29803;51.048;4.686;2023-04-05T10:23:07;102239.88;;;13.12;61.24
44140;BME280;29803;51.048;4.686;2023-04-05T10:25:59;102236.16;;;13.23;62.80
44140;BME280;29803;51.048;4.686;2023-04-05T10:28:34;102239.59;;;13.43;55.56
44140;BME280;29803;51.048;4.686;2023-04-05T10:31:24;102229.88;;;13.50;55.86
44140;BME280;29803;51.048;4.686;2023-04-05T10:34:19;102233.47;;;13.86;61.16
44140;BME280;29803;51.048;4.686;2023-04-05T10:36:57;102227.81;;;13.44;54.32
44140;BME280;29803;51.048;4.686;2023-04-05T10:39:48;102226.84;;;13.08;54.88
44140;BME280;29803;51.048;4.686;2023-04-05T10:42:20;102228.81;;;13.15;59.86
44140;BME280;29803;51.048;4.686;2023-04-05T10:44:52;102231.66;;;13.04;56.57
44140;BME280;29803;51.048;4.686;2023-04-05T10:47:31;102227.13;;;13.60;62.58
44140;BME280;29803;51.048;4.686;2023-04-05T10:50:07;102224.53;;;13.68;57.10
44140;BME280;29803;51.048;4.686;2023-04-05T10:52:40;102222.28;;;13.45;51.82
44140;BME280;29803;51.048;4.686;2023-04-05T10:55:11;102218.56;;;13.19;49.79
44140;BME280;29803;51.048;4.686;2023-04-05T10:57:43;102220.53;;;13.27;55.27
44140;BME280;29803;51.048;4.686;2023-04-05T11:00:15;102211.28;;;13.29;51.47
44140;BME280;29803;51.048;4.686;2023-04-05T11:02:47;102211.25;;;13.39;55.17
44140;BME280;29803;51.048;4.686;2023-04-05T11:05:31;102214.00;;;12.92;57.19
44140;BME280;29803;51.048;4.686;2023-04-05T11:08:05;102210.88;;;12.96;58.02
44140;BME280;29803;51.048;4.686;2023-04-05T11:10:36;102208.44;;;12.66;61.10
44140;BME280;29803;51.048;4.686;2023-04-05T11:13:08;102210.38;;;12.27;58.40
44140;BME280;29803;51.048;4.686;2023-04-05T11:15:40;102199.72;;;12.35;58.30
44140;BME280;29803;51.048;4.686;2023-04-05T11:18:28;102200.75;;;12.24;63.65
44140;BME280;29803;51.048;4.686;2023-04-05T11:21:05;102206.25;;;12.32;61.12
44140;BME280;29803;51.048;4.686;2023-04-05T11:29:16;102193.75;;;12.60;56.17
44140;BME280;29803;51.048;4.686;2023-04-05T11:31:58;102198.44;;;12.49;55.80
44140;BME280;29803;51.048;4.686;2023-04-05T11:34:35;102193.41;;;12.63;59.47
44140;BME280;29803;51.048;4.686;2023-04-05T11:37:06;102199.91;;;12.80;52.97
44140;BME280;29803;51.048;4.686;2023-04-05T11:39:36;102195.59;;;12.87;57.00
44140;BME280;29803;51.048;4.686;2023-04-05T11:42:10;102187.75;;;12.94;56.80
44140;BME280;29803;51.048;4.686;2023-04-05T11:44:42;102186.22;;;13.19;54.02
44140;BME280;29803;51.048;4.686;2023-04-05T11:47:28;102185.06;;;13.31;58.77
44140;BME280;29803;51.048;4.686;2023-04-05T11:49:59;102175.91;;;13.42;55.40
44140;BME280;29803;51.048;4.686;2023-04-05T11:52:30;102173.84;;;13.71;59.21
44140;BME280;29803;51.048;4.686;2023-04-05T11:55:00;102164.69;;;14.08;72.73
44140;BME280;29803;51.048;4.686;2023-04-05T11:57:30;102168.72;;;14.48;60.51
44140;BME280;29803;51.048;4.686;2023-04-05T12:00:03;102162.22;;;14.67;52.36
44140;BME280;29803;51.048;4.686;2023-04-05T12:02:33;102152.88;;;14.09;49.87
44140;BME280;29803;51.048;4.686;2023-04-05T12:05:04;102154.94;;;13.54;58.63
44140;BME280;29803;51.048;4.686;2023-04-05T12:07:35;102148.56;;;13.09;55.52
44140;BME280;29803;51.048;4.686;2023-04-05T12:10:08;102145.91;;;13.00;55.15
44140;BME280;29803;51.048;4.686;2023-04-05T12:12:42;102146.09;;;13.26;55.60
44140;BME280;29803;51.048;4.686;2023-04-05T12:15:14;102144.50;;;13.51;53.15
44140;BME280;29803;51.048;4.686;2023-04-05T12:17:49;102147.56;;;13.10;55.62
44140;BME280;29803;51.048;4.686;2023-04-05T12:20:22;102138.16;;;12.96;52.52
44140;BME280;29803;51.048;4.686;2023-04-05T12:22:55;102139.63;;;13.09;50.08
44140;BME280;29803;51.048;4.686;2023-04-05T12:25:26;102135.28;;;12.98;48.86
44140;BME280;29803;51.048;4.686;2023-04-05T12:28:03;102130.34;;;13.21;55.97
44140;BME280;29803;51.048;4.686;2023-04-05T12:30:34;102124.59;;;13.34;54.96
44140;BME280;29803;51.048;4.686;2023-04-05T12:33:07;102124.69;;;13.14;60.74
44140;BME280;29803;51.048;4.686;2023-04-05T12:35:38;102123.44;;;13.54;52.54
44140;BME280;29803;51.048;4.686;2023-04-05T12:38:13;102123.66;;;13.25;53.49
44140;BME280;29803;51.048;4.686;2023-04-05T12:40:45;102114.28;;;13.29;54.13
44140;BME280;29803;51.048;4.686;2023-04-05T12:43:15;102120.13;;;14.04;46.66
44140;BME280;29803;51.048;4.686;2023-04-05T12:45:52;102116.13;;;13.46;49.36
44140;BME280;29803;51.048;4.686;2023-04-05T12:48:24;102122.06;;;13.50;57.88
44140;BME280;29803;51.048;4.686;2023-04-05T12:50:56;102120.16;;;13.15;50.36
44140;BME280;29803;51.048;4.686;2023-04-05T12:53:26;102104.91;;;13.51;47.83
44140;BME280;29803;51.048;4.686;2023-04-05T12:55:57;102108.94;;;13.91;46.80
44140;BME280;29803;51.048;4.686;2023-04-05T12:58:47;102106.56;;;13.70;47.91
44140;BME280;29803;51.048;4.686;2023-04-05T13:01:20;102110.50;;;13.76;50.64
44140;BME280;29803;51.048;4.686;2023-04-05T13:03:50;102100.84;;;13.55;46.52
44140;BME280;29803;51.048;4.686;2023-04-05T13:06:22;102098.53;;;13.60;51.35
44140;BME280;29803;51.048;4.686;2023-04-05T13:08:52;102093.75;;;14.16;52.01
44140;BME280;29803;51.048;4.686;2023-04-05T13:11:23;102091.31;;;14.65;47.24
44140;BME280;29803;51.048;4.686;2023-04-05T13:13:53;102096.91;;;14.45;44.72
44140;BME280;29803;51.048;4.686;2023-04-05T13:16:24;102086.53;;;13.98;44.34
44140;BME280;29803;51.048;4.686;2023-04-05T13:18:54;102078.63;;;13.97;50.04
44140;BME280;29803;51.048;4.686;2023-04-05T13:21:25;102078.25;;;13.92;48.85
44140;BME280;29803;51.048;4.686;2023-04-05T13:23:56;102080.84;;;13.58;51.49
44140;BME280;29803;51.048;4.686;2023-04-05T13:26:27;102076.78;;;13.36;55.73
44140;BME280;29803;51.048;4.686;2023-04-05T13:28:57;102070.84;;;13.32;56.77
44140;BME280;29803;51.048;4.686;2023-04-05T13:31:28;102066.59;;;13.47;51.41
44140;BME280;29803;51.048;4.686;2023-04-05T13:33:58;102066.06;;;13.44;54.31
44140;BME280;29803;51.048;4.686;2023-04-05T13:36:29;102058.09;;;13.60;54.15